Terminal Aerodrome Forecast
Issued by NWS

Home | Current Version | Previous Version | Text Only | Print | Product List | Glossary On
Versions: 1 2 3 4 5 6 7 8 9 10 11 12 13 14 15 16 17 18 19 20 21 22
000
FTUS44 KMAF 190500
TAFINK
TAF
KINK 190522Z 1906/2006 13011G21KT P6SM OVC250
     FM191600 14012G22KT P6SM SCT050 OVC120
     FM200100 12007KT P6SM FEW045 OVC120
      TEMPO 2004/2006 VRB15G25KT 6SM -TSRA BKN040CB=

USA.gov is the U.S. government's official web portal to all federal, state and local government web resources and services.